Time;durP1;ratioP1;P1;durP2;ratioP2;P2;SDS_P1;SDS_P2;PMS_P1;PMS_P2;Temp;Humidity;BMP_temperature;BMP_pressure;BME280_temperature;BME280_humidity;BME280_pressure;Samples;Min_cycle;Max_cycle;Signal;HPM_P1;HPM_P2
2020/12/31 00:04:56;;;;;;;10.55;9.55;;;;;;;;;;4659919;28;20107;-61
2020/12/31 00:07:22;;;;;;;10.70;9.70;;;;;;;;;;4164878;34;20611;-60
2020/12/31 00:09:48;;;;;;;10.52;9.52;;;;;;;;;;4169109;34;20511;-60
2020/12/31 00:12:13;;;;;;;10.07;9.07;;;;;;;;;;4178315;34;20125;-60
2020/12/31 00:14:40;;;;;;;9.82;8.93;;;;;;;;;;4178255;34;20220;-60
2020/12/31 00:17:06;;;;;;;9.82;8.93;;;;;;;;;;4178557;34;20130;-60
2020/12/31 00:19:33;;;;;;;9.75;8.85;;;;;;;;;;4178312;34;20531;-60
2020/12/31 00:21:58;;;;;;;9.98;8.98;;;;;;;;;;4178355;34;20194;-60
2020/12/31 00:24:24;;;;;;;9.25;8.45;;;;;;;;;;4178182;34;20156;-60
2020/12/31 00:26:50;;;;;;;9.30;8.40;;;;;;;;;;4178317;34;20098;-60
2020/12/31 00:29:16;;;;;;;9.40;8.50;;;;;;;;;;4177956;34;20123;-61
2020/12/31 00:31:43;;;;;;;9.20;8.40;;;;;;;;;;4178334;34;20106;-61
2020/12/31 00:34:08;;;;;;;9.07;8.20;;;;;;;;;;4178014;34;20107;-61
2020/12/31 00:36:34;;;;;;;9.57;8.73;;;;;;;;;;4178195;34;20114;-61
2020/12/31 00:39:00;;;;;;;8.55;7.75;;;;;;;;;;4178190;34;20221;-61
2020/12/31 00:41:26;;;;;;;8.68;7.93;;;;;;;;;;4171230;34;20161;-60
2020/12/31 00:43:52;;;;;;;8.52;7.72;;;;;;;;;;4178172;34;20126;-61
2020/12/31 00:46:18;;;;;;;8.68;7.93;;;;;;;;;;4178068;34;20138;-60
2020/12/31 00:48:44;;;;;;;8.15;7.45;;;;;;;;;;4172336;34;20099;-60
2020/12/31 00:51:10;;;;;;;8.05;7.35;;;;;;;;;;4177869;34;20098;-61
2020/12/31 00:53:35;;;;;;;8.98;8.18;;;;;;;;;;4177962;34;20094;-60
2020/12/31 00:56:02;;;;;;;8.55;7.78;;;;;;;;;;4177804;34;20535;-60
2020/12/31 00:58:27;;;;;;;8.63;7.82;;;;;;;;;;4171233;34;20118;-61
2020/12/31 01:00:53;;;;;;;8.70;7.90;;;;;;;;;;4178132;34;20140;-60
2020/12/31 01:03:19;;;;;;;8.45;7.65;;;;;;;;;;4176750;34;20148;-60
2020/12/31 01:05:45;;;;;;;7.97;7.28;;;;;;;;;;4177621;34;20122;-60
2020/12/31 01:08:11;;;;;;;8.90;8.05;;;;;;;;;;4175261;34;20110;-60
2020/12/31 01:10:37;;;;;;;9.30;8.48;;;;;;;;;;4178098;34;20105;-60
2020/12/31 01:13:03;;;;;;;9.57;8.57;;;;;;;;;;4177757;34;20129;-61
2020/12/31 01:15:28;;;;;;;8.75;7.95;;;;;;;;;;4177728;34;20205;-61
2020/12/31 01:17:54;;;;;;;9.13;8.32;;;;;;;;;;4177433;34;20239;-60
2020/12/31 01:20:20;;;;;;;9.18;8.27;;;;;;;;;;4177846;34;20536;-60
2020/12/31 01:22:46;;;;;;;9.02;8.23;;;;;;;;;;4177822;34;20102;-60
2020/12/31 01:25:12;;;;;;;9.05;8.23;;;;;;;;;;4177633;34;20126;-60
2020/12/31 01:27:38;;;;;;;9.07;8.27;;;;;;;;;;4177730;34;20209;-60
2020/12/31 01:30:04;;;;;;;9.77;8.88;;;;;;;;;;4177575;34;20619;-61
2020/12/31 01:32:30;;;;;;;8.50;7.70;;;;;;;;;;4177447;34;20178;-61
2020/12/31 01:34:56;;;;;;;8.77;7.97;;;;;;;;;;4173414;34;20134;-60
2020/12/31 01:37:22;;;;;;;8.40;7.60;;;;;;;;;;4177766;34;20133;-60
2020/12/31 01:39:48;;;;;;;8.95;8.15;;;;;;;;;;4177543;34;20614;-60
2020/12/31 01:42:14;;;;;;;8.52;7.72;;;;;;;;;;4177538;34;20121;-62
2020/12/31 01:44:40;;;;;;;8.65;7.85;;;;;;;;;;4177834;34;20153;-60
2020/12/31 01:47:06;;;;;;;9.10;8.30;;;;;;;;;;4174384;34;20110;-61
2020/12/31 01:49:35;;;;;;;9.20;8.30;;;;;;;;;;4170896;34;20186;-60
2020/12/31 01:52:01;;;;;;;8.57;7.78;;;;;;;;;;4177481;34;20122;-61
2020/12/31 01:54:28;;;;;;;8.70;7.90;;;;;;;;;;4177492;34;20287;-61
2020/12/31 01:56:56;;;;;;;8.65;7.85;;;;;;;;;;4173045;34;20260;-61
2020/12/31 01:59:22;;;;;;;8.55;7.85;;;;;;;;;;4177442;34;20184;-59
2020/12/31 02:01:48;;;;;;;8.77;7.97;;;;;;;;;;4177527;34;20149;-61
2020/12/31 02:04:14;;;;;;;9.10;8.25;;;;;;;;;;4176877;34;20242;-61
2020/12/31 02:06:40;;;;;;;8.65;7.85;;;;;;;;;;4177516;34;20458;-61
2020/12/31 02:09:06;;;;;;;8.27;7.47;;;;;;;;;;4174084;34;20209;-62
2020/12/31 02:11:32;;;;;;;8.40;7.60;;;;;;;;;;4177435;34;20112;-61
2020/12/31 02:13:58;;;;;;;8.52;7.80;;;;;;;;;;4176932;34;20102;-62
2020/12/31 02:16:25;;;;;;;8.73;7.93;;;;;;;;;;4177233;34;20106;-61
2020/12/31 02:18:51;;;;;;;9.38;8.57;;;;;;;;;;4177003;34;20462;-62
2020/12/31 02:21:18;;;;;;;8.82;8.02;;;;;;;;;;4177448;34;20122;-61
2020/12/31 02:23:44;;;;;;;9.75;8.75;;;;;;;;;;4177532;34;20090;-59
2020/12/31 02:26:10;;;;;;;10.07;9.18;;;;;;;;;;4177063;34;20129;-59
2020/12/31 02:28:36;;;;;;;9.23;8.18;;;;;;;;;;4177245;34;20122;-59
2020/12/31 02:31:02;;;;;;;9.65;8.73;;;;;;;;;;4177001;34;20138;-60
2020/12/31 02:33:28;;;;;;;9.70;8.80;;;;;;;;;;4176820;34;20110;-59
2020/12/31 02:35:54;;;;;;;10.23;9.23;;;;;;;;;;4176963;34;20145;-60
2020/12/31 02:38:20;;;;;;;10.05;9.05;;;;;;;;;;4177199;34;20227;-59
2020/12/31 02:40:45;;;;;;;9.65;8.82;;;;;;;;;;4177079;34;20602;-59
2020/12/31 02:43:11;;;;;;;8.88;8.05;;;;;;;;;;4177011;34;20341;-60
2020/12/31 02:45:37;;;;;;;8.85;8.02;;;;;;;;;;4176913;34;20091;-60
2020/12/31 02:48:03;;;;;;;10.38;9.40;;;;;;;;;;4176794;34;20233;-60
2020/12/31 02:50:29;;;;;;;9.45;8.43;;;;;;;;;;4177039;34;20133;-61
2020/12/31 02:52:55;;;;;;;9.20;8.30;;;;;;;;;;4176885;34;20125;-60
2020/12/31 02:55:20;;;;;;;9.38;8.55;;;;;;;;;;4176803;34;20122;-61
2020/12/31 02:57:46;;;;;;;9.90;8.95;;;;;;;;;;4176934;34;20110;-61
2020/12/31 03:00:12;;;;;;;9.52;8.63;;;;;;;;;;4176745;34;20594;-61
2020/12/31 03:02:38;;;;;;;9.65;8.52;;;;;;;;;;4176495;34;20530;-61
2020/12/31 03:05:04;;;;;;;9.00;8.10;;;;;;;;;;4176675;34;20126;-62
2020/12/31 03:07:30;;;;;;;9.50;8.60;;;;;;;;;;4176900;34;20138;-61
2020/12/31 03:09:55;;;;;;;9.05;8.18;;;;;;;;;;4176769;34;20279;-61
2020/12/31 03:12:21;;;;;;;9.75;8.85;;;;;;;;;;4176958;34;20114;-61
2020/12/31 03:14:47;;;;;;;9.30;8.40;;;;;;;;;;4176694;34;20193;-61
2020/12/31 03:17:13;;;;;;;9.23;8.35;;;;;;;;;;4176734;34;20199;-61
2020/12/31 03:19:39;;;;;;;9.80;8.80;;;;;;;;;;4176320;34;20134;-60
2020/12/31 03:22:05;;;;;;;9.93;9.02;;;;;;;;;;4173286;34;20118;-62
2020/12/31 03:24:38;;;;;;;9.65;8.77;;;;;;;;;;4176754;34;20142;-63
2020/12/31 03:27:05;;;;;;;9.27;8.48;;;;;;;;;;4177553;34;20117;-63
2020/12/31 03:29:31;;;;;;;10.18;9.18;;;;;;;;;;4178875;34;20114;-63
2020/12/31 03:31:57;;;;;;;11.55;9.43;;;;;;;;;;4178754;34;20106;-63
2020/12/31 03:34:23;;;;;;;10.18;9.18;;;;;;;;;;4176649;34;20138;-64
2020/12/31 03:36:49;;;;;;;9.45;8.55;;;;;;;;;;4178727;34;20110;-62
2020/12/31 03:39:15;;;;;;;10.52;9.60;;;;;;;;;;4176320;34;20110;-61
2020/12/31 03:41:40;;;;;;;11.10;10.05;;;;;;;;;;4178599;34;20235;-63
2020/12/31 03:44:06;;;;;;;10.95;9.65;;;;;;;;;;4178452;34;20110;-63
2020/12/31 03:46:32;;;;;;;9.57;8.57;;;;;;;;;;4178621;34;20130;-62
2020/12/31 03:48:58;;;;;;;9.77;8.88;;;;;;;;;;4178284;34;20106;-63
2020/12/31 03:51:24;;;;;;;9.80;8.90;;;;;;;;;;4178540;34;20219;-61
2020/12/31 03:53:49;;;;;;;10.50;9.50;;;;;;;;;;4178516;34;20110;-62
2020/12/31 03:56:18;;;;;;;9.30;8.40;;;;;;;;;;4178314;34;20133;-61
2020/12/31 03:58:44;;;;;;;9.82;8.93;;;;;;;;;;4178765;34;20215;-61
2020/12/31 04:01:10;;;;;;;9.50;8.60;;;;;;;;;;4178704;34;20117;-60
2020/12/31 04:03:36;;;;;;;9.25;8.40;;;;;;;;;;4178097;34;20133;-60
2020/12/31 04:06:02;;;;;;;10.23;9.32;;;;;;;;;;4178338;34;20609;-61
2020/12/31 04:08:27;;;;;;;8.70;7.90;;;;;;;;;;4178617;34;20134;-61
2020/12/31 04:10:53;;;;;;;10.20;9.30;;;;;;;;;;4178265;34;20137;-62
2020/12/31 04:13:19;;;;;;;9.52;8.68;;;;;;;;;;4178231;34;20110;-62
2020/12/31 04:15:45;;;;;;;10.05;9.10;;;;;;;;;;4173153;34;20206;-62
2020/12/31 04:18:11;;;;;;;9.13;8.23;;;;;;;;;;4177937;34;20102;-63
2020/12/31 04:20:37;;;;;;;9.65;8.75;;;;;;;;;;4178219;34;20551;-63
2020/12/31 04:23:03;;;;;;;10.00;9.00;;;;;;;;;;4178439;34;20532;-63
2020/12/31 04:25:28;;;;;;;9.30;8.45;;;;;;;;;;4178169;34;20122;-61
2020/12/31 04:27:54;;;;;;;9.57;8.68;;;;;;;;;;4178238;34;20197;-62
2020/12/31 04:30:20;;;;;;;10.30;9.30;;;;;;;;;;4178140;34;20522;-62
2020/12/31 04:32:46;;;;;;;9.77;8.85;;;;;;;;;;4172918;34;20170;-62
2020/12/31 04:35:12;;;;;;;9.30;8.40;;;;;;;;;;4178043;34;20140;-63
2020/12/31 04:37:38;;;;;;;9.55;8.75;;;;;;;;;;4178006;34;20130;-65
2020/12/31 04:40:04;;;;;;;9.65;8.75;;;;;;;;;;4178185;34;20126;-62
2020/12/31 04:42:35;;;;;;;9.02;8.23;;;;;;;;;;4176962;34;20099;-63
2020/12/31 04:45:03;;;;;;;9.20;8.27;;;;;;;;;;4190494;34;20522;-61
2020/12/31 04:47:29;;;;;;;10.18;9.18;;;;;;;;;;4183765;34;20106;-62
2020/12/31 04:49:54;;;;;;;9.00;8.20;;;;;;;;;;4164477;34;20122;-61
2020/12/31 04:52:20;;;;;;;9.18;8.27;;;;;;;;;;4168306;34;20114;-60
2020/12/31 04:54:46;;;;;;;8.88;8.07;;;;;;;;;;4190806;34;20105;-61
2020/12/31 04:57:12;;;;;;;9.48;8.57;;;;;;;;;;4188940;34;20149;-60
2020/12/31 04:59:38;;;;;;;9.05;8.15;;;;;;;;;;4178568;34;20107;-60
2020/12/31 05:02:07;;;;;;;9.52;8.63;;;;;;;;;;4174369;34;20463;-60
2020/12/31 05:04:33;;;;;;;9.35;8.45;;;;;;;;;;4189187;34;20194;-59
2020/12/31 05:06:59;;;;;;;9.27;8.38;;;;;;;;;;4191561;34;20122;-59
2020/12/31 05:09:25;;;;;;;9.10;8.30;;;;;;;;;;4191195;34;20214;-60
2020/12/31 05:11:52;;;;;;;8.95;8.15;;;;;;;;;;4191447;34;20225;-59
2020/12/31 05:14:34;;;;;;;10.38;9.38;;;;;;;;;;4180100;34;20099;-59
2020/12/31 05:17:15;;;;;;;9.60;8.50;;;;;;;;;;4177759;34;20099;-59
2020/12/31 05:19:41;;;;;;;10.10;9.10;;;;;;;;;;4176129;34;20111;-60
2020/12/31 05:22:13;;;;;;;9.90;8.30;;;;;;;;;;4176087;34;20126;-63
2020/12/31 05:24:47;;;;;;;9.48;8.57;;;;;;;;;;4178522;34;20477;-66
2020/12/31 05:27:23;;;;;;;10.48;9.38;;;;;;;;;;4188625;34;20601;-61
2020/12/31 05:30:03;;;;;;;;;;;;;;;;;;4191222;34;20091;-61
2020/12/31 05:32:33;;;;;;;9.82;8.90;;;;;;;;;;4190545;34;20335;-60
2020/12/31 05:34:59;;;;;;;8.68;7.87;;;;;;;;;;4190624;34;20105;-60
2020/12/31 05:37:27;;;;;;;9.60;8.73;;;;;;;;;;4190842;34;20493;-63
2020/12/31 05:40:14;;;;;;;10.80;8.63;;;;;;;;;;4190189;34;20130;-63
2020/12/31 05:42:42;;;;;;;9.30;8.35;;;;;;;;;;4186318;34;20218;-64
2020/12/31 05:45:14;;;;;;;11.55;10.35;;;;;;;;;;4190886;34;20098;-62
2020/12/31 05:47:50;;;;;;;10.27;9.32;;;;;;;;;;4191352;34;20136;-63
2020/12/31 05:50:17;;;;;;;10.45;9.45;;;;;;;;;;4188522;34;20164;-63
2020/12/31 05:52:43;;;;;;;11.70;10.60;;;;;;;;;;4191142;34;20474;-63
2020/12/31 05:55:09;;;;;;;11.63;10.55;;;;;;;;;;4190429;34;20118;-64
2020/12/31 05:57:51;;;;;;;11.90;10.80;;;;;;;;;;4190600;34;20614;-62
2020/12/31 06:00:28;;;;;;;18.00;16.15;;;;;;;;;;4189191;34;20565;-63
2020/12/31 06:02:55;;;;;;;17.58;15.77;;;;;;;;;;4191037;34;20550;-62
2020/12/31 06:05:22;;;;;;;15.52;13.88;;;;;;;;;;4191134;34;20121;-61
2020/12/31 06:07:52;;;;;;;15.30;13.73;;;;;;;;;;4191415;34;20482;-61
2020/12/31 06:10:21;;;;;;;12.23;11.02;;;;;;;;;;4190923;34;20130;-62
2020/12/31 06:12:48;;;;;;;12.07;10.88;;;;;;;;;;4191238;34;20127;-60
2020/12/31 06:15:25;;;;;;;11.60;10.50;;;;;;;;;;4190900;34;20130;-63
2020/12/31 06:17:51;;;;;;;11.12;9.63;;;;;;;;;;4191109;34;20218;-62
2020/12/31 06:20:18;;;;;;;11.48;10.48;;;;;;;;;;4190995;34;20134;-62
2020/12/31 06:23:03;;;;;;;12.98;11.50;;;;;;;;;;4191050;34;20205;-62
2020/12/31 06:25:34;;;;;;;11.82;10.70;;;;;;;;;;4187989;34;20142;-61
2020/12/31 06:28:05;;;;;;;10.95;9.85;;;;;;;;;;4190647;34;20121;-60
2020/12/31 06:30:32;;;;;;;11.82;10.63;;;;;;;;;;4188190;34;20523;-61
2020/12/31 06:33:22;;;;;;;11.75;10.55;;;;;;;;;;4176943;34;20111;-63
2020/12/31 06:35:52;;;;;;;20.05;18.08;;;;;;;;;;4159742;34;20143;-63
2020/12/31 06:38:42;;;;;;;13.52;11.93;;;;;;;;;;4174950;34;20121;-62
2020/12/31 06:41:31;;;;;;;13.80;12.40;;;;;;;;;;4176967;34;20547;-65
2020/12/31 06:44:10;;;;;;;13.27;11.90;;;;;;;;;;4154552;34;20162;-62
2020/12/31 06:46:39;;;;;;;13.27;11.98;;;;;;;;;;4173476;34;20183;-62
2020/12/31 06:49:05;;;;;;;13.77;11.65;;;;;;;;;;4185007;34;20187;-62
2020/12/31 06:51:32;;;;;;;12.88;11.55;;;;;;;;;;4182830;34;20130;-65
2020/12/31 06:53:58;;;;;;;12.65;11.40;;;;;;;;;;4190076;34;20174;-62
2020/12/31 06:56:47;;;;;;;12.10;10.90;;;;;;;;;;4188603;34;20118;-62
2020/12/31 06:59:35;;;;;;;14.98;13.07;;;;;;;;;;4189595;34;20153;-64
2020/12/31 07:02:03;;;;;;;11.30;10.20;;;;;;;;;;4191544;34;20129;-62
2020/12/31 07:04:30;;;;;;;12.90;11.60;;;;;;;;;;4189189;34;20714;-61
2020/12/31 07:06:57;;;;;;;12.98;11.73;;;;;;;;;;4184825;34;20162;-60
2020/12/31 07:09:31;;;;;;;15.13;13.55;;;;;;;;;;4184622;34;20580;-65
2020/12/31 07:11:58;;;;;;;17.83;15.98;;;;;;;;;;4191446;34;20110;-59
2020/12/31 07:14:27;;;;;;;17.48;15.77;;;;;;;;;;4191022;34;20115;-61
2020/12/31 07:16:58;;;;;;;18.77;16.87;;;;;;;;;;4191568;34;20166;-61
2020/12/31 07:19:41;;;;;;;19.05;17.05;;;;;;;;;;4190166;34;20102;-65
2020/12/31 07:22:10;;;;;;;15.98;14.30;;;;;;;;;;4187384;34;20126;-65
2020/12/31 07:25:03;;;;;;;13.88;12.57;;;;;;;;;;4190828;34;20106;-62
2020/12/31 07:27:31;;;;;;;10.57;9.48;;;;;;;;;;4190955;34;20202;-63
2020/12/31 07:29:58;;;;;;;9.82;8.90;;;;;;;;;;4185541;34;20125;-62
2020/12/31 07:32:46;;;;;;;9.27;8.43;;;;;;;;;;4190084;34;20133;-64
2020/12/31 07:35:30;;;;;;;8.20;7.40;;;;;;;;;;4192070;34;20367;-61
2020/12/31 07:38:07;;;;;;;7.60;6.90;;;;;;;;;;4192604;34;20109;-60
2020/12/31 07:40:37;;;;;;;9.30;8.48;;;;;;;;;;4192165;34;20097;-60
2020/12/31 07:43:03;;;;;;;11.05;9.95;;;;;;;;;;4192268;34;20113;-60
2020/12/31 07:45:31;;;;;;;10.05;9.05;;;;;;;;;;4192225;34;20438;-60
2020/12/31 07:47:57;;;;;;;7.22;6.57;;;;;;;;;;4192444;34;20117;-59
2020/12/31 07:50:23;;;;;;;9.05;8.13;;;;;;;;;;4192135;34;20232;-60
2020/12/31 07:52:49;;;;;;;10.13;9.10;;;;;;;;;;4192178;34;20118;-61
2020/12/31 07:55:15;;;;;;;9.85;8.95;;;;;;;;;;4192058;34;20209;-61
2020/12/31 07:57:41;;;;;;;7.72;6.95;;;;;;;;;;4186655;34;20474;-61
2020/12/31 08:00:07;;;;;;;8.32;7.53;;;;;;;;;;4190546;34;20149;-59
2020/12/31 08:02:33;;;;;;;8.68;7.80;;;;;;;;;;4192258;34;20126;-60
2020/12/31 08:05:09;;;;;;;13.95;12.55;;;;;;;;;;4191858;34;20230;-60
2020/12/31 08:07:35;;;;;;;10.98;9.98;;;;;;;;;;4192216;34;20122;-58
2020/12/31 08:10:01;;;;;;;10.50;9.50;;;;;;;;;;4192352;34;20201;-60
2020/12/31 08:12:27;;;;;;;9.57;8.68;;;;;;;;;;4191690;34;20106;-60
2020/12/31 08:14:53;;;;;;;8.23;7.50;;;;;;;;;;4191846;34;20578;-61
2020/12/31 08:17:19;;;;;;;7.95;7.25;;;;;;;;;;4190024;34;20110;-59
2020/12/31 08:19:45;;;;;;;7.20;6.22;;;;;;;;;;4191935;34;20555;-60
2020/12/31 08:22:22;;;;;;;7.70;6.90;;;;;;;;;;4189229;34;20227;-62
2020/12/31 08:25:18;;;;;;;9.35;8.45;;;;;;;;;;4191889;34;20113;-59
2020/12/31 08:27:44;;;;;;;8.20;7.40;;;;;;;;;;4182295;34;20102;-59
2020/12/31 08:30:11;;;;;;;8.02;7.25;;;;;;;;;;4177912;34;20388;-59
2020/12/31 08:32:59;;;;;;;7.47;6.78;;;;;;;;;;4185941;34;20463;-59
2020/12/31 08:35:29;;;;;;;7.60;6.90;;;;;;;;;;4191765;34;20122;-59
2020/12/31 08:38:03;;;;;;;8.02;7.32;;;;;;;;;;4191910;34;20583;-58
2020/12/31 08:40:33;;;;;;;8.07;7.10;;;;;;;;;;4191787;34;20114;-58
2020/12/31 08:42:59;;;;;;;6.80;6.20;;;;;;;;;;4191855;34;20114;-57
2020/12/31 08:45:31;;;;;;;6.22;5.62;;;;;;;;;;4191732;34;20133;-57
2020/12/31 08:48:13;;;;;;;6.32;5.72;;;;;;;;;;4191718;34;20118;-59
2020/12/31 08:50:39;;;;;;;6.93;6.30;;;;;;;;;;4191703;34;20174;-58
2020/12/31 08:53:05;;;;;;;7.10;6.50;;;;;;;;;;4191712;34;20129;-59
2020/12/31 08:55:35;;;;;;;9.43;8.52;;;;;;;;;;4191652;34;20145;-60
2020/12/31 08:58:14;;;;;;;9.35;8.45;;;;;;;;;;4191683;34;20122;-59
2020/12/31 09:00:41;;;;;;;11.45;9.07;;;;;;;;;;4191571;34;20107;-58
2020/12/31 09:03:07;;;;;;;8.15;7.35;;;;;;;;;;4191670;34;20160;-58
2020/12/31 09:05:32;;;;;;;8.05;7.25;;;;;;;;;;4191531;34;20118;-58
2020/12/31 09:08:06;;;;;;;7.03;6.32;;;;;;;;;;4191638;34;20536;-58
2020/12/31 09:10:33;;;;;;;8.73;6.90;;;;;;;;;;4191661;34;20138;-58
2020/12/31 09:12:59;;;;;;;7.28;6.62;;;;;;;;;;4191727;34;20217;-58
2020/12/31 09:15:25;;;;;;;6.72;6.12;;;;;;;;;;4191402;34;20522;-57
2020/12/31 09:17:50;;;;;;;7.53;6.82;;;;;;;;;;4191734;34;20122;-58
2020/12/31 09:20:18;;;;;;;7.55;6.85;;;;;;;;;;4191451;34;20134;-58
2020/12/31 09:22:44;;;;;;;7.28;6.57;;;;;;;;;;4191546;34;20109;-56
2020/12/31 09:25:10;;;;;;;8.00;7.20;;;;;;;;;;4190641;34;20110;-57
2020/12/31 09:27:36;;;;;;;7.43;6.75;;;;;;;;;;4191462;34;20095;-57
2020/12/31 09:30:03;;;;;;;6.93;6.22;;;;;;;;;;4191590;34;20091;-57
2020/12/31 09:32:29;;;;;;;7.35;6.65;;;;;;;;;;4191551;34;20219;-57
2020/12/31 09:34:55;;;;;;;7.95;7.05;;;;;;;;;;4191519;34;20234;-57
2020/12/31 09:37:21;;;;;;;7.93;7.12;;;;;;;;;;4191519;34;20479;-56
2020/12/31 09:39:47;;;;;;;8.55;7.75;;;;;;;;;;4191224;34;20126;-57
2020/12/31 09:42:13;;;;;;;8.77;7.87;;;;;;;;;;4191536;34;20100;-58
2020/12/31 09:44:39;;;;;;;8.88;7.97;;;;;;;;;;4191262;34;20141;-57
2020/12/31 09:47:05;;;;;;;7.22;6.53;;;;;;;;;;4191223;34;20141;-58
2020/12/31 09:49:31;;;;;;;7.57;6.97;;;;;;;;;;4191509;34;20182;-57
2020/12/31 09:51:57;;;;;;;7.70;6.97;;;;;;;;;;4191211;34;20485;-57
2020/12/31 09:54:22;;;;;;;7.12;6.43;;;;;;;;;;4191140;34;20150;-59
2020/12/31 09:56:48;;;;;;;11.45;10.43;;;;;;;;;;4191236;34;20107;-57
2020/12/31 09:59:14;;;;;;;11.43;10.43;;;;;;;;;;4191220;34;20182;-57
2020/12/31 10:01:40;;;;;;;8.80;8.00;;;;;;;;;;4191439;34;20133;-56
2020/12/31 10:04:06;;;;;;;10.13;9.13;;;;;;;;;;4191270;34;20122;-57
2020/12/31 10:06:32;;;;;;;10.00;9.10;;;;;;;;;;4191084;34;20117;-58
2020/12/31 10:08:58;;;;;;;9.65;8.65;;;;;;;;;;4191335;34;20110;-57
2020/12/31 10:11:23;;;;;;;10.15;9.15;;;;;;;;;;4190934;34;20679;-58
2020/12/31 10:13:49;;;;;;;9.07;8.23;;;;;;;;;;4191023;34;20110;-57
2020/12/31 10:16:15;;;;;;;7.30;6.65;;;;;;;;;;4190957;34;20459;-56
2020/12/31 10:18:41;;;;;;;8.05;7.35;;;;;;;;;;4191223;34;20101;-57
2020/12/31 10:21:07;;;;;;;9.68;8.77;;;;;;;;;;4190740;34;20125;-61
2020/12/31 10:23:33;;;;;;;11.82;10.63;;;;;;;;;;4184495;34;20126;-59
2020/12/31 10:25:59;;;;;;;18.62;15.60;;;;;;;;;;4190759;34;20141;-59
2020/12/31 10:28:24;;;;;;;22.77;17.10;;;;;;;;;;4189679;34;20228;-57
2020/12/31 10:30:50;;;;;;;17.83;14.35;;;;;;;;;;4190296;34;20121;-58
2020/12/31 10:33:16;;;;;;;13.07;11.55;;;;;;;;;;4190432;34;20105;-58
2020/12/31 10:35:43;;;;;;;10.43;9.40;;;;;;;;;;4184734;34;20122;-58
2020/12/31 10:38:09;;;;;;;8.93;8.02;;;;;;;;;;4190194;34;20105;-59
2020/12/31 10:40:35;;;;;;;6.60;6.00;;;;;;;;;;4190331;34;20125;-58
2020/12/31 10:43:01;;;;;;;8.00;7.30;;;;;;;;;;4190490;34;20109;-58
2020/12/31 10:45:27;;;;;;;8.40;7.60;;;;;;;;;;4190963;34;20157;-58
2020/12/31 10:47:53;;;;;;;10.40;9.45;;;;;;;;;;4190757;34;20540;-57
2020/12/31 10:50:19;;;;;;;8.90;8.10;;;;;;;;;;4190673;34;20130;-57
2020/12/31 10:52:44;;;;;;;10.45;9.45;;;;;;;;;;4190593;34;20216;-58
2020/12/31 10:55:10;;;;;;;10.82;9.82;;;;;;;;;;4190532;34;20145;-57
2020/12/31 10:57:37;;;;;;;9.25;8.38;;;;;;;;;;4190900;34;20146;-58
2020/12/31 11:00:03;;;;;;;7.25;6.57;;;;;;;;;;4190489;34;20179;-58
2020/12/31 11:02:29;;;;;;;9.23;8.32;;;;;;;;;;4190591;34;20102;-57
2020/12/31 11:04:55;;;;;;;10.45;9.45;;;;;;;;;;4190320;34;20194;-58
2020/12/31 11:07:20;;;;;;;11.82;10.65;;;;;;;;;;4190857;34;20109;-58
2020/12/31 11:09:46;;;;;;;16.45;14.60;;;;;;;;;;4190444;34;20121;-58
2020/12/31 11:12:12;;;;;;;12.57;11.27;;;;;;;;;;4190453;34;20138;-58
2020/12/31 11:14:38;;;;;;;13.93;12.52;;;;;;;;;;4190544;34;20114;-58
2020/12/31 11:17:04;;;;;;;11.93;10.68;;;;;;;;;;4190519;34;20773;-58
2020/12/31 11:19:29;;;;;;;9.10;8.30;;;;;;;;;;4190297;34;20106;-59
2020/12/31 11:21:56;;;;;;;11.48;10.30;;;;;;;;;;4190569;34;20177;-58
2020/12/31 11:24:21;;;;;;;21.23;17.30;;;;;;;;;;4190244;34;20203;-58
2020/12/31 11:26:50;;;;;;;16.83;14.02;;;;;;;;;;4190332;34;20118;-58
2020/12/31 11:29:15;;;;;;;14.60;13.05;;;;;;;;;;4190131;34;20121;-57
2020/12/31 11:31:41;;;;;;;12.68;11.20;;;;;;;;;;4190552;34;20586;-57
2020/12/31 11:34:07;;;;;;;8.65;7.85;;;;;;;;;;4190106;34;20145;-58
2020/12/31 11:36:33;;;;;;;10.13;8.25;;;;;;;;;;4190233;34;20505;-58
2020/12/31 11:38:59;;;;;;;8.90;8.05;;;;;;;;;;4190502;34;20108;-58
2020/12/31 11:41:27;;;;;;;8.75;7.78;;;;;;;;;;4190262;34;20126;-57
2020/12/31 11:43:53;;;;;;;7.95;7.15;;;;;;;;;;4190154;34;20110;-58
2020/12/31 11:46:19;;;;;;;8.93;8.10;;;;;;;;;;4190247;34;20436;-58
2020/12/31 11:48:45;;;;;;;8.60;7.70;;;;;;;;;;4191774;34;20153;-57
2020/12/31 11:51:11;;;;;;;8.88;7.97;;;;;;;;;;4192371;34;20206;-57
2020/12/31 11:53:38;;;;;;;9.50;8.60;;;;;;;;;;4192169;34;20130;-58
2020/12/31 11:56:04;;;;;;;9.27;8.38;;;;;;;;;;4192574;34;20190;-58
2020/12/31 11:58:30;;;;;;;9.25;7.68;;;;;;;;;;4192175;34;20522;-58
2020/12/31 12:00:56;;;;;;;8.80;7.90;;;;;;;;;;4192423;34;20110;-58
2020/12/31 12:03:23;;;;;;;11.23;10.10;;;;;;;;;;4192092;34;20186;-58
2020/12/31 12:05:52;;;;;;;12.32;11.12;;;;;;;;;;4191981;34;20133;-58
2020/12/31 12:08:19;;;;;;;17.05;15.25;;;;;;;;;;4192194;34;20526;-58
2020/12/31 12:10:50;;;;;;;20.55;17.40;;;;;;;;;;4192189;34;20519;-58
2020/12/31 12:13:16;;;;;;;20.58;17.80;;;;;;;;;;4191960;34;20286;-60
2020/12/31 12:15:42;;;;;;;20.08;16.05;;;;;;;;;;4192068;34;20126;-58
2020/12/31 12:18:08;;;;;;;16.90;14.73;;;;;;;;;;4192288;34;20120;-58
2020/12/31 12:20:34;;;;;;;16.77;14.70;;;;;;;;;;4191892;34;20137;-59
2020/12/31 12:23:00;;;;;;;12.43;11.23;;;;;;;;;;4192011;34;20201;-58
2020/12/31 12:25:26;;;;;;;11.02;9.93;;;;;;;;;;4192044;34;20507;-57
2020/12/31 12:27:52;;;;;;;11.32;10.25;;;;;;;;;;4191988;34;20125;-60
2020/12/31 12:30:18;;;;;;;11.27;10.07;;;;;;;;;;4191830;34;20594;-57
2020/12/31 12:32:44;;;;;;;10.80;9.88;;;;;;;;;;4192018;34;20186;-57
2020/12/31 12:35:11;;;;;;;10.77;9.68;;;;;;;;;;4191591;34;20102;-59
2020/12/31 12:37:37;;;;;;;10.63;9.57;;;;;;;;;;4192301;34;20261;-58
2020/12/31 12:40:07;;;;;;;11.40;10.27;;;;;;;;;;4191810;34;20124;-57
2020/12/31 12:42:33;;;;;;;14.27;12.85;;;;;;;;;;4191935;34;20094;-57
2020/12/31 12:45:00;;;;;;;15.13;13.57;;;;;;;;;;4191821;34;20552;-58
2020/12/31 12:47:26;;;;;;;14.27;12.88;;;;;;;;;;4191738;34;20560;-58
2020/12/31 12:49:52;;;;;;;12.98;11.68;;;;;;;;;;4191818;34;20133;-59
2020/12/31 12:52:18;;;;;;;11.85;10.65;;;;;;;;;;4189762;34;20536;-58
2020/12/31 12:54:44;;;;;;;11.32;10.13;;;;;;;;;;4191723;34;20109;-57
2020/12/31 12:57:10;;;;;;;8.80;8.00;;;;;;;;;;4191742;34;20462;-58
2020/12/31 12:59:36;;;;;;;10.68;9.60;;;;;;;;;;4191433;34;20099;-58
2020/12/31 13:02:02;;;;;;;11.57;10.48;;;;;;;;;;4191655;34;20155;-58
2020/12/31 13:04:28;;;;;;;20.00;17.87;;;;;;;;;;4191437;34;20189;-57
2020/12/31 13:06:54;;;;;;;11.85;10.65;;;;;;;;;;4191792;34;20157;-58
2020/12/31 13:09:19;;;;;;;9.93;8.93;;;;;;;;;;4191608;34;20225;-59
2020/12/31 13:11:45;;;;;;;14.10;12.70;;;;;;;;;;4191657;34;20126;-58
2020/12/31 13:14:11;;;;;;;13.20;11.85;;;;;;;;;;4191451;34;20098;-58
2020/12/31 13:16:37;;;;;;;12.13;10.77;;;;;;;;;;4191560;34;20098;-59
2020/12/31 13:19:03;;;;;;;11.88;10.77;;;;;;;;;;4191733;34;20174;-58
2020/12/31 13:21:29;;;;;;;12.40;10.52;;;;;;;;;;4191713;34;20102;-58
2020/12/31 13:23:55;;;;;;;12.05;10.95;;;;;;;;;;4191655;34;20098;-58
2020/12/31 13:26:21;;;;;;;15.38;13.13;;;;;;;;;;4191299;34;20105;-58
2020/12/31 13:28:47;;;;;;;19.23;17.23;;;;;;;;;;4191597;34;20118;-59
2020/12/31 13:31:13;;;;;;;17.05;15.35;;;;;;;;;;4191284;34;20110;-59
2020/12/31 13:33:39;;;;;;;20.62;16.37;;;;;;;;;;4191264;34;20205;-60
2020/12/31 13:36:05;;;;;;;21.87;19.33;;;;;;;;;;4191153;34;20128;-58
2020/12/31 13:38:31;;;;;;;23.67;20.67;;;;;;;;;;4191481;34;20101;-57
2020/12/31 13:40:57;;;;;;;21.45;18.15;;;;;;;;;;4191225;34;20114;-57
2020/12/31 13:43:24;;;;;;;36.88;29.05;;;;;;;;;;4191564;34;20130;-58
2020/12/31 13:45:50;;;;;;;24.58;20.52;;;;;;;;;;4191409;34;20204;-59
2020/12/31 13:48:16;;;;;;;15.77;14.15;;;;;;;;;;4191326;34;20196;-58
2020/12/31 13:50:41;;;;;;;12.77;11.48;;;;;;;;;;4185720;34;20213;-56
2020/12/31 13:53:07;;;;;;;17.35;15.48;;;;;;;;;;4191362;34;20198;-56
2020/12/31 13:55:33;;;;;;;14.15;12.02;;;;;;;;;;4191203;34;20122;-58
2020/12/31 13:57:59;;;;;;;12.07;10.88;;;;;;;;;;4187184;34;20124;-59
2020/12/31 14:00:25;;;;;;;13.43;12.13;;;;;;;;;;4185534;34;20133;-59
2020/12/31 14:02:51;;;;;;;12.27;10.98;;;;;;;;;;4191418;34;20122;-59
2020/12/31 14:05:17;;;;;;;11.45;10.35;;;;;;;;;;4191139;34;20137;-59
2020/12/31 14:07:43;;;;;;;13.25;11.90;;;;;;;;;;4185932;34;20137;-58
2020/12/31 14:10:11;;;;;;;15.75;13.38;;;;;;;;;;4190445;34;20526;-59
2020/12/31 14:12:36;;;;;;;15.95;14.23;;;;;;;;;;4191238;34;20134;-58
2020/12/31 14:15:03;;;;;;;15.60;13.77;;;;;;;;;;4191003;34;20614;-58
2020/12/31 14:17:29;;;;;;;18.20;16.15;;;;;;;;;;4191022;34;20112;-59
2020/12/31 14:19:54;;;;;;;23.95;19.10;;;;;;;;;;4190995;34;20145;-60
2020/12/31 14:22:21;;;;;;;19.10;16.87;;;;;;;;;;4190992;34;20126;-59
2020/12/31 14:24:50;;;;;;;27.00;23.20;;;;;;;;;;4190962;34;20514;-60
2020/12/31 14:27:16;;;;;;;22.25;18.08;;;;;;;;;;4190928;34;20206;-56
2020/12/31 14:29:42;;;;;;;24.42;19.55;;;;;;;;;;4191196;34;20141;-58
2020/12/31 14:32:09;;;;;;;20.90;18.77;;;;;;;;;;4187893;34;20118;-57
2020/12/31 14:34:35;;;;;;;21.92;19.25;;;;;;;;;;4191027;34;20117;-56
2020/12/31 14:37:00;;;;;;;19.60;17.50;;;;;;;;;;4190931;34;20102;-56
2020/12/31 14:39:26;;;;;;;20.88;18.55;;;;;;;;;;4190781;34;20530;-57